createdAt,value
2022-10-13T00:00:52.234Z,9.278383
2022-10-13T00:01:52.221Z,9.278325
2022-10-13T00:02:52.179Z,9.278307
2022-10-13T00:03:52.142Z,9.278289
2022-10-13T00:04:52.147Z,9.278353
2022-10-13T00:05:52.121Z,9.278388
2022-10-13T00:06:52.147Z,9.278376
2022-10-13T00:07:52.063Z,9.278357
2022-10-13T00:08:52.074Z,9.278386
2022-10-13T00:09:52.047Z,9.278372
2022-10-13T00:10:52.036Z,9.278367
2022-10-13T00:11:52.069Z,9.278415
2022-10-13T00:12:52.009Z,9.278417
2022-10-13T00:13:51.978Z,9.278296
2022-10-13T00:14:51.971Z,9.278291
2022-10-13T00:15:51.932Z,9.278351
2022-10-13T00:16:51.970Z,9.278319
2022-10-13T00:17:51.901Z,9.278391
2022-10-13T00:18:51.896Z,9.278358
2022-10-13T00:19:51.900Z,9.278359
2022-10-13T00:20:51.873Z,9.278319
2022-10-13T00:21:51.894Z,9.278373
2022-10-13T00:22:51.828Z,9.278360
2022-10-13T00:23:52.056Z,9.278397
2022-10-13T00:24:52.821Z,9.278431
2022-10-13T00:25:51.791Z,9.278331
2022-10-13T00:26:51.788Z,9.278396
2022-10-13T00:27:51.778Z,9.278271
2022-10-13T00:28:53.114Z,9.278285
2022-10-13T00:29:52.709Z,9.278399
2022-10-13T00:30:51.688Z,9.278374
2022-10-13T00:31:51.721Z,9.278354
2022-10-13T00:32:51.663Z,9.278346
2022-10-13T00:33:51.639Z,9.278341
2022-10-13T00:34:51.634Z,9.278430
2022-10-13T00:35:51.612Z,9.278377
2022-10-13T00:36:51.615Z,9.278326
2022-10-13T00:37:51.565Z,9.278240
2022-10-13T00:38:51.576Z,9.278292
2022-10-13T00:39:51.535Z,9.278325
2022-10-13T00:40:51.542Z,9.278384
2022-10-13T00:41:51.545Z,9.278304
2022-10-13T00:42:51.513Z,9.278386
2022-10-13T00:43:51.583Z,9.278425
2022-10-13T00:44:51.495Z,9.278399
2022-10-13T00:45:51.524Z,9.278169
2022-10-13T00:46:51.473Z,9.278292
2022-10-13T00:47:51.441Z,9.278388
2022-10-13T00:48:51.390Z,9.278345
2022-10-13T00:49:51.380Z,9.278393
2022-10-13T00:50:51.351Z,9.278320
2022-10-13T00:51:51.360Z,9.278351
2022-10-13T00:52:52.328Z,9.278210
2022-10-13T00:53:51.314Z,9.278392
2022-10-13T00:54:52.294Z,9.278326
2022-10-13T00:55:51.276Z,9.278195
2022-10-13T00:56:51.309Z,9.278448
2022-10-13T00:57:51.240Z,9.278499
2022-10-13T00:58:51.215Z,9.278375
2022-10-13T00:59:51.247Z,9.278249
2022-10-13T01:00:51.247Z,9.278269
2022-10-13T01:01:51.228Z,9.278359
2022-10-13T01:02:51.160Z,9.278332
2022-10-13T01:03:51.144Z,9.278219
2022-10-13T01:04:51.125Z,9.278358
2022-10-13T01:05:51.105Z,9.278392
2022-10-13T01:06:51.145Z,9.278285
2022-10-13T01:07:51.105Z,9.278370
2022-10-13T01:08:51.065Z,9.278287
2022-10-13T01:09:51.049Z,9.278361
2022-10-13T01:10:51.038Z,9.278253
2022-10-13T01:11:51.054Z,9.278332
2022-10-13T01:12:50.988Z,9.278182
2022-10-13T01:13:50.982Z,9.278244
2022-10-13T01:14:50.977Z,9.278261
2022-10-13T01:15:50.965Z,9.278297
2022-10-13T01:16:50.955Z,9.278255
2022-10-13T01:17:50.921Z,9.278164
2022-10-13T01:18:50.899Z,9.278234
2022-10-13T01:19:50.902Z,9.278233
2022-10-13T01:20:50.863Z,9.278256
2022-10-13T01:21:50.883Z,9.278160
2022-10-13T01:22:50.853Z,9.278329
2022-10-13T01:23:50.804Z,9.278271
2022-10-13T01:24:50.805Z,9.278275
2022-10-13T01:25:50.769Z,9.278271
2022-10-13T01:26:50.786Z,9.278293
2022-10-13T01:27:50.744Z,9.278271
2022-10-13T01:28:50.756Z,9.278341
2022-10-13T01:29:50.702Z,9.278296
2022-10-13T01:30:50.715Z,9.278213
2022-10-13T01:31:50.714Z,9.278248
2022-10-13T01:32:50.659Z,9.278266
2022-10-13T01:33:50.636Z,9.278262
2022-10-13T01:34:50.632Z,9.278210
2022-10-13T01:35:50.603Z,9.278214
2022-10-13T01:36:50.632Z,9.278264
2022-10-13T01:37:50.562Z,9.278314
2022-10-13T01:38:50.570Z,9.278404
2022-10-13T01:39:50.532Z,9.278299
2022-10-13T01:40:50.559Z,9.278206
2022-10-13T01:41:50.538Z,9.278272
2022-10-13T01:42:50.488Z,9.278139
2022-10-13T01:43:50.464Z,9.278271
2022-10-13T01:44:50.448Z,9.278301
2022-10-13T01:45:50.431Z,9.278260
2022-10-13T01:46:50.454Z,9.278246
2022-10-13T01:47:50.404Z,9.278299
2022-10-13T01:48:50.370Z,9.278357
2022-10-13T01:49:50.364Z,9.278316
2022-10-13T01:50:50.344Z,9.278338
2022-10-13T01:51:50.374Z,9.278333
2022-10-13T01:52:50.353Z,9.278330
2022-10-13T01:53:50.288Z,9.278301
2022-10-13T01:54:50.272Z,9.278371
2022-10-13T01:55:50.262Z,9.278415
2022-10-13T01:56:50.270Z,9.278459
2022-10-13T01:57:50.232Z,9.278396
2022-10-13T01:58:50.223Z,9.278360
2022-10-13T01:59:50.177Z,9.278282
2022-10-13T02:00:50.208Z,9.278373
2022-10-13T02:01:50.187Z,9.278411
2022-10-13T02:02:50.150Z,9.278431
2022-10-13T02:03:50.120Z,9.278410
2022-10-13T02:04:50.189Z,9.278295
2022-10-13T02:05:50.088Z,9.278431
2022-10-13T02:06:50.113Z,9.278411
2022-10-13T02:07:50.065Z,9.278400
2022-10-13T02:08:50.058Z,9.278453
2022-10-13T02:09:50.017Z,9.278350
2022-10-13T02:10:50.011Z,9.278371
2022-10-13T02:11:50.050Z,9.278347
2022-10-13T02:12:49.976Z,9.278325
2022-10-13T02:13:49.966Z,9.278353
2022-10-13T02:14:49.956Z,9.278336
2022-10-13T02:15:49.936Z,9.278380
2022-10-13T02:16:49.937Z,9.278327
2022-10-13T02:17:49.899Z,9.278393
2022-10-13T02:18:49.878Z,9.278356
2022-10-13T02:19:49.874Z,9.278394
2022-10-13T02:20:49.830Z,9.278360
2022-10-13T02:21:49.864Z,9.278291
2022-10-13T02:22:49.812Z,9.278392
2022-10-13T02:23:49.781Z,9.278400
2022-10-13T02:24:49.764Z,9.278412
2022-10-13T02:25:49.758Z,9.278300
2022-10-13T02:26:49.801Z,9.278255
2022-10-13T02:27:49.720Z,9.278083
2022-10-13T02:28:49.752Z,9.278309
2022-10-13T02:29:49.691Z,9.278385
2022-10-13T02:30:49.672Z,9.278349
2022-10-13T02:31:49.688Z,9.278347
2022-10-13T02:32:49.639Z,9.278364
2022-10-13T02:33:49.632Z,9.278392
2022-10-13T02:34:49.607Z,9.278422
2022-10-13T02:35:49.577Z,9.278282
2022-10-13T02:36:49.611Z,9.278281
2022-10-13T02:37:49.543Z,9.278296
2022-10-13T02:38:49.554Z,9.278364
2022-10-13T02:39:49.511Z,9.278362
2022-10-13T02:40:49.489Z,9.278316
2022-10-13T02:41:49.507Z,9.278332
2022-10-13T02:42:49.507Z,9.278378
2022-10-13T02:43:49.459Z,9.278342
2022-10-13T02:44:49.426Z,9.278297
2022-10-13T02:45:49.420Z,9.278284
2022-10-13T02:46:49.427Z,9.278309
2022-10-13T02:47:49.385Z,9.278310
2022-10-13T02:48:50.357Z,9.278308
2022-10-13T02:49:49.360Z,9.278189
2022-10-13T02:50:49.322Z,9.278359
2022-10-13T02:51:49.336Z,9.278366
2022-10-13T02:52:49.288Z,9.278421
2022-10-13T02:53:49.273Z,9.278455
2022-10-13T02:54:49.256Z,9.278371
2022-10-13T02:55:49.273Z,9.278465
2022-10-13T02:56:49.261Z,9.278363
2022-10-13T02:57:49.290Z,9.278316
2022-10-13T02:58:49.214Z,9.278335
2022-10-13T02:59:49.164Z,9.278322
2022-10-13T03:00:49.187Z,9.278354
2022-10-13T03:01:49.172Z,9.278462
2022-10-13T03:02:49.124Z,9.278424
2022-10-13T03:03:49.108Z,9.278419
2022-10-13T03:04:49.090Z,9.278405
2022-10-13T03:05:49.131Z,9.278549
2022-10-13T03:06:49.090Z,9.278470
2022-10-13T03:07:49.054Z,9.278479
2022-10-13T03:08:49.030Z,9.278417
2022-10-13T03:09:48.993Z,9.278346
2022-10-13T03:10:48.992Z,9.278362
2022-10-13T03:11:48.996Z,9.278336
2022-10-13T03:12:48.983Z,9.278389
2022-10-13T03:13:48.940Z,9.277983
2022-10-13T03:14:48.915Z,9.277819
2022-10-13T03:15:48.958Z,9.278278
2022-10-13T03:16:49.026Z,9.278289
2022-10-13T03:17:48.874Z,9.278147
2022-10-13T03:18:48.864Z,9.278245
2022-10-13T03:19:48.851Z,9.278246
2022-10-13T03:20:48.847Z,9.278252
2022-10-13T03:21:48.824Z,9.278247
2022-10-13T03:22:49.876Z,9.278215
2022-10-13T03:23:49.758Z,9.278069
2022-10-13T03:24:48.754Z,9.278121
2022-10-13T03:25:48.741Z,9.278275
2022-10-13T03:26:48.749Z,9.278270
2022-10-13T03:27:48.690Z,9.278236
2022-10-13T03:28:48.738Z,9.278256
2022-10-13T03:29:48.658Z,9.278296
2022-10-13T03:30:48.654Z,9.278200
2022-10-13T03:31:48.664Z,9.278181
2022-10-13T03:32:48.624Z,9.278228
2022-10-13T03:33:48.594Z,9.278210
2022-10-13T03:34:48.583Z,9.278500
2022-10-13T03:35:48.562Z,9.278322
2022-10-13T03:36:48.637Z,9.278224
2022-10-13T03:37:48.524Z,9.278276
2022-10-13T03:38:48.526Z,9.278140
2022-10-13T03:39:48.492Z,9.278206
2022-10-13T03:40:48.516Z,9.278296
2022-10-13T03:41:48.476Z,9.278193
2022-10-13T03:42:48.435Z,9.278129
2022-10-13T03:43:48.424Z,9.278238
2022-10-13T03:44:52.348Z,9.278181
2022-10-13T03:45:49.378Z,9.278224
2022-10-13T03:46:48.415Z,9.278307
2022-10-13T03:47:48.388Z,9.278187
2022-10-13T03:48:48.334Z,9.278078
2022-10-13T03:49:48.324Z,9.278077
2022-10-13T03:50:48.303Z,9.278129
2022-10-13T03:51:49.308Z,9.278044
2022-10-13T03:52:48.302Z,9.278084
2022-10-13T03:53:48.276Z,9.278197
2022-10-13T03:54:48.231Z,9.278148
2022-10-13T03:55:48.224Z,9.278224
2022-10-13T03:56:48.244Z,9.278097
2022-10-13T03:57:48.185Z,9.277905
2022-10-13T03:58:48.181Z,9.278028
2022-10-13T03:59:48.159Z,9.278031
2022-10-13T04:00:48.149Z,9.278020
2022-10-13T04:01:48.223Z,9.277943
2022-10-13T04:02:48.106Z,9.278168
2022-10-13T04:03:48.084Z,9.278235
2022-10-13T04:04:48.071Z,9.278117
2022-10-13T04:05:48.074Z,9.278089
2022-10-13T04:06:48.052Z,9.278156
2022-10-13T04:07:48.014Z,9.278125
2022-10-13T04:08:48.013Z,9.278279
2022-10-13T04:09:47.991Z,9.278259
2022-10-13T04:10:47.973Z,9.278219
2022-10-13T04:11:48.075Z,9.278296
2022-10-13T04:12:47.945Z,9.278329
2022-10-13T04:13:47.904Z,9.278180
2022-10-13T04:14:47.892Z,9.278099
2022-10-13T04:15:47.903Z,9.278163
2022-10-13T04:16:47.948Z,9.278193
2022-10-13T04:17:47.856Z,9.278259
2022-10-13T04:18:47.827Z,9.278326
2022-10-13T04:19:47.832Z,9.278378
2022-10-13T04:20:47.821Z,9.278186
2022-10-13T04:21:47.829Z,9.278141
2022-10-13T04:22:47.796Z,9.278101
2022-10-13T04:23:47.748Z,9.278218
2022-10-13T04:24:47.753Z,9.278172
2022-10-13T04:25:47.729Z,9.278188
2022-10-13T04:26:47.738Z,9.278146
2022-10-13T04:27:47.671Z,9.277907
2022-10-13T04:28:47.715Z,9.278189
2022-10-13T04:29:47.654Z,9.278345
2022-10-13T04:30:49.619Z,9.278080
2022-10-13T04:31:48.665Z,9.278228
2022-10-13T04:32:47.617Z,9.278157
2022-10-13T04:33:47.601Z,9.278105
2022-10-13T04:34:47.585Z,9.278051
2022-10-13T04:35:47.566Z,9.277912
2022-10-13T04:36:47.587Z,9.277924
2022-10-13T04:37:47.511Z,9.278189
2022-10-13T04:38:47.539Z,9.278325
2022-10-13T04:39:47.511Z,9.278300
2022-10-13T04:40:47.465Z,9.278238
2022-10-13T04:41:47.476Z,9.278349
2022-10-13T04:42:47.441Z,9.278058
2022-10-13T04:43:47.435Z,9.277983
2022-10-13T04:44:47.402Z,9.278112
2022-10-13T04:45:47.379Z,9.278058
2022-10-13T04:46:47.398Z,9.278091
2022-10-13T04:47:47.444Z,9.278022
2022-10-13T04:48:47.322Z,9.278108
2022-10-13T04:49:47.309Z,9.278236
2022-10-13T04:50:47.288Z,9.278065
2022-10-13T04:51:47.298Z,9.278125
2022-10-13T04:52:47.252Z,9.278241
2022-10-13T04:53:47.233Z,9.278258
2022-10-13T04:54:47.218Z,9.278242
2022-10-13T04:55:47.248Z,9.278347
2022-10-13T04:56:47.217Z,9.278321
2022-10-13T04:57:47.180Z,9.278287
2022-10-13T04:58:47.195Z,9.278247
2022-10-13T04:59:47.133Z,9.278341
2022-10-13T05:00:47.168Z,9.278267
2022-10-13T05:01:47.153Z,9.278197
2022-10-13T05:02:47.089Z,9.278316
2022-10-13T05:03:47.107Z,9.278235
2022-10-13T05:04:47.052Z,9.278302
2022-10-13T05:05:47.032Z,9.278289
2022-10-13T05:07:16.083Z,9.278177
2022-10-13T05:07:48.991Z,9.278244
2022-10-13T05:08:46.992Z,9.278342
2022-10-13T05:09:46.958Z,9.278253
2022-10-13T05:10:46.944Z,9.278252
2022-10-13T05:11:46.948Z,9.278233
2022-10-13T05:12:46.911Z,9.278362
2022-10-13T05:13:46.888Z,9.278364
2022-10-13T05:14:46.871Z,9.278361
2022-10-13T05:15:46.853Z,9.278360
2022-10-13T05:16:46.892Z,9.278444
2022-10-13T05:17:46.838Z,9.278249
2022-10-13T05:18:47.804Z,9.278253
2022-10-13T05:19:46.863Z,9.278278
2022-10-13T05:20:46.860Z,9.278263
2022-10-13T05:21:46.774Z,9.278178
2022-10-13T05:22:46.749Z,9.278167
2022-10-13T05:23:46.730Z,9.278214
2022-10-13T05:24:46.709Z,9.278275
2022-10-13T05:25:46.685Z,9.278280
2022-10-13T05:26:46.695Z,9.278300
2022-10-13T05:27:46.657Z,9.278195
2022-10-13T05:28:46.695Z,9.278527
2022-10-13T05:29:46.609Z,9.278607
2022-10-13T05:30:46.592Z,9.278508
2022-10-13T05:31:46.603Z,9.278439
2022-10-13T05:32:50.267Z,9.278430
2022-10-13T05:33:47.538Z,9.278208
2022-10-13T05:34:46.547Z,9.278460
2022-10-13T05:35:46.525Z,9.278352
2022-10-13T05:36:46.559Z,9.278391
2022-10-13T05:37:46.487Z,9.278324
2022-10-13T05:38:46.479Z,9.278330
2022-10-13T05:39:48.758Z,9.278248
2022-10-13T05:40:47.426Z,9.278181
2022-10-13T05:41:46.436Z,9.278180
2022-10-13T05:42:46.419Z,9.278176
2022-10-13T05:43:46.377Z,9.278191
2022-10-13T05:44:46.379Z,9.278232
2022-10-13T05:45:46.342Z,9.278296
2022-10-13T05:46:46.387Z,9.278308
2022-10-13T05:47:46.304Z,9.278265
2022-10-13T05:48:46.290Z,9.278271
2022-10-13T05:49:46.285Z,9.278263
2022-10-13T05:50:46.270Z,9.278257
2022-10-13T05:51:46.289Z,9.278262
2022-10-13T05:52:46.215Z,9.278184
2022-10-13T05:53:50.238Z,9.278226
2022-10-13T05:54:47.197Z,9.278267
2022-10-13T05:55:46.151Z,9.278289
2022-10-13T05:56:46.190Z,9.278376
2022-10-13T05:57:46.167Z,9.278341
2022-10-13T05:58:46.109Z,9.278293
2022-10-13T05:59:46.105Z,9.278334
2022-10-13T06:00:46.083Z,9.278378
2022-10-13T06:01:46.112Z,9.278359
2022-10-13T06:02:46.081Z,9.278298
2022-10-13T06:03:46.036Z,9.278288
2022-10-13T06:04:46.007Z,9.278316
2022-10-13T06:05:45.997Z,9.278297
2022-10-13T06:06:45.975Z,9.278255
2022-10-13T06:07:46.001Z,9.278272
2022-10-13T06:08:45.943Z,9.278302
2022-10-13T06:09:45.928Z,9.278349
2022-10-13T06:10:45.923Z,9.278340
2022-10-13T06:11:45.882Z,9.278335
2022-10-13T06:12:45.920Z,9.278402
2022-10-13T06:13:45.858Z,9.278452
2022-10-13T06:14:45.845Z,9.278359
2022-10-13T06:15:45.821Z,9.278337
2022-10-13T06:16:45.812Z,9.278305
2022-10-13T06:17:45.816Z,9.278302
2022-10-13T06:18:45.797Z,9.278262
2022-10-13T06:19:45.749Z,9.278240
2022-10-13T06:20:45.773Z,9.278232
2022-10-13T06:21:45.712Z,9.278209
2022-10-13T06:22:45.764Z,9.278328
2022-10-13T06:23:45.718Z,9.278284
2022-10-13T06:24:45.714Z,9.278317
2022-10-13T06:25:45.662Z,9.278331
2022-10-13T06:26:45.646Z,9.278380
2022-10-13T06:27:45.659Z,9.278370
2022-10-13T06:28:50.015Z,9.278352
2022-10-13T06:29:47.592Z,9.278432
2022-10-13T06:30:45.575Z,9.278415
2022-10-13T06:31:45.618Z,9.278424
2022-10-13T06:32:45.614Z,9.278407
2022-10-13T06:33:45.521Z,9.278510
2022-10-13T06:34:45.526Z,9.278376
2022-10-13T06:35:45.489Z,9.278294
2022-10-13T06:36:45.615Z,9.278369
2022-10-13T06:37:45.494Z,9.278484
2022-10-13T06:38:45.449Z,9.278360
2022-10-13T06:39:45.417Z,9.278511
2022-10-13T06:40:45.409Z,9.278515
2022-10-13T06:41:45.406Z,9.278265
2022-10-13T06:42:45.407Z,9.278415
2022-10-13T06:43:45.370Z,9.278274
2022-10-13T06:44:45.360Z,9.278280
2022-10-13T06:45:45.319Z,9.278259
2022-10-13T06:46:45.301Z,9.278298
2022-10-13T06:47:45.324Z,9.278425
2022-10-13T06:48:45.269Z,9.278400
2022-10-13T06:49:45.239Z,9.278451
2022-10-13T06:50:45.232Z,9.278370
2022-10-13T06:51:45.210Z,9.278359
2022-10-13T06:52:45.225Z,9.278347
2022-10-13T06:53:45.175Z,9.278307
2022-10-13T06:54:45.163Z,9.278417
2022-10-13T06:55:48.060Z,9.278371
2022-10-13T06:56:46.133Z,9.278366
2022-10-13T06:57:45.127Z,9.278372
2022-10-13T06:58:45.077Z,9.278377
2022-10-13T06:59:45.056Z,9.278324
2022-10-13T07:00:45.141Z,9.278386
2022-10-13T07:01:45.114Z,9.278343
2022-10-13T07:02:45.053Z,9.278416
2022-10-13T07:03:45.001Z,9.278503
2022-10-13T07:04:44.973Z,9.278708
2022-10-13T07:05:44.994Z,9.278766
2022-10-13T07:06:44.971Z,9.278504
2022-10-13T07:07:44.948Z,9.278473
2022-10-13T07:08:44.896Z,9.278458
2022-10-13T07:09:44.918Z,9.278537
2022-10-13T07:10:44.868Z,9.278510
2022-10-13T07:11:44.863Z,9.278534
2022-10-13T07:12:44.873Z,9.278471
2022-10-13T07:13:46.581Z,9.278565
2022-10-13T07:14:45.820Z,9.278425
2022-10-13T07:15:44.781Z,9.278215
2022-10-13T07:16:44.768Z,9.278394
2022-10-13T07:17:45.771Z,9.278438
2022-10-13T07:18:44.764Z,9.278447
2022-10-13T07:19:44.707Z,9.278358
2022-10-13T07:20:44.690Z,9.278419
2022-10-13T07:21:44.672Z,9.278403
2022-10-13T07:22:44.696Z,9.278367
2022-10-13T07:23:44.686Z,9.278297
2022-10-13T07:24:44.617Z,9.278239
2022-10-13T07:25:44.614Z,9.278180
2022-10-13T07:26:44.604Z,9.278360
2022-10-13T07:27:44.613Z,9.278290
2022-10-13T07:28:44.602Z,9.278196
2022-10-13T07:29:44.536Z,9.278266
2022-10-13T07:30:44.544Z,9.278342
2022-10-13T07:31:44.539Z,9.278387
2022-10-13T07:32:44.531Z,9.278343
2022-10-13T07:33:44.470Z,9.278319
2022-10-13T07:34:44.455Z,9.278377
2022-10-13T07:35:44.425Z,9.278415
2022-10-13T07:36:44.417Z,9.278524
2022-10-13T07:37:44.447Z,9.278391
2022-10-13T07:38:44.377Z,9.278279
2022-10-13T07:39:44.379Z,9.278287
2022-10-13T07:40:44.340Z,9.278322
2022-10-13T07:41:47.546Z,9.278295
2022-10-13T07:42:46.385Z,9.278368
2022-10-13T07:43:44.306Z,9.278361
2022-10-13T07:44:44.277Z,9.278371
2022-10-13T07:45:44.255Z,9.278288
2022-10-13T07:46:44.266Z,9.278345
2022-10-13T07:47:44.265Z,9.278360
2022-10-13T07:48:44.216Z,9.278293
2022-10-13T07:49:44.199Z,9.278280
2022-10-13T07:50:44.179Z,9.278237
2022-10-13T07:51:44.162Z,9.278296
2022-10-13T07:52:44.221Z,9.278291
2022-10-13T07:53:44.125Z,9.278304
2022-10-13T07:54:44.130Z,9.278296
2022-10-13T07:55:44.087Z,9.278264
2022-10-13T07:56:44.063Z,9.278184
2022-10-13T07:57:44.082Z,9.278249
2022-10-13T07:58:44.026Z,9.278255
2022-10-13T07:59:44.033Z,9.278296
2022-10-13T08:00:44.068Z,9.278409
2022-10-13T08:01:44.019Z,9.278087
2022-10-13T08:02:44.004Z,9.278202
2022-10-13T08:03:47.133Z,9.278254
2022-10-13T08:04:44.929Z,9.278201
2022-10-13T08:05:43.964Z,9.278301
2022-10-13T08:06:43.958Z,9.278309
2022-10-13T08:07:43.882Z,9.278267
2022-10-13T08:08:43.864Z,9.278293
2022-10-13T08:09:43.879Z,9.278304
2022-10-13T08:10:43.864Z,9.278317
2022-10-13T08:11:44.830Z,9.278292
2022-10-13T08:12:43.795Z,9.278327
2022-10-13T08:13:43.769Z,9.278343
2022-10-13T08:14:43.859Z,9.278382
2022-10-13T08:15:43.733Z,9.278378
2022-10-13T08:16:43.750Z,9.278380
2022-10-13T08:17:43.720Z,9.278364
2022-10-13T08:18:43.700Z,9.278371
2022-10-13T08:19:43.660Z,9.278356
2022-10-13T08:20:44.048Z,9.278308
2022-10-13T08:22:00.446Z,9.278317
2022-10-13T08:22:45.613Z,9.278330
2022-10-13T08:23:43.619Z,9.278287
2022-10-13T08:24:43.591Z,9.278325
2022-10-13T08:25:43.591Z,9.278269
2022-10-13T08:26:43.621Z,9.278217
2022-10-13T08:27:51.060Z,9.278234
2022-10-13T08:29:02.970Z,9.278277
2022-10-13T08:29:45.503Z,9.278316
2022-10-13T08:30:43.567Z,9.278384
2022-10-13T08:31:43.716Z,9.278267
2022-10-13T08:32:43.465Z,9.278367
2022-10-13T08:33:43.437Z,9.278420
2022-10-13T08:34:43.457Z,9.278384
2022-10-13T08:35:43.410Z,9.278337
2022-10-13T08:36:43.419Z,9.278365
2022-10-13T08:37:43.365Z,9.278397
2022-10-13T08:38:43.357Z,9.278404
2022-10-13T08:39:43.386Z,9.278319
2022-10-13T08:40:43.324Z,9.278259
2022-10-13T08:41:43.326Z,9.278228
2022-10-13T08:42:43.298Z,9.278208
2022-10-13T08:44:13.475Z,9.278196
2022-10-13T08:45:45.253Z,9.278174
2022-10-13T08:46:43.252Z,9.278226
2022-10-13T08:47:43.261Z,9.278233
2022-10-13T08:48:43.186Z,9.278312
2022-10-13T08:49:43.386Z,9.278310
2022-10-13T08:50:43.145Z,9.278271
2022-10-13T08:51:43.166Z,9.278342
2022-10-13T08:52:43.153Z,9.278361
2022-10-13T08:53:43.104Z,9.278376
2022-10-13T08:54:43.142Z,9.278337
2022-10-13T08:55:43.075Z,9.278312
2022-10-13T08:56:43.055Z,9.278232
2022-10-13T08:57:43.081Z,9.278178
2022-10-13T08:58:43.070Z,9.278185
2022-10-13T08:59:43.002Z,9.278119
2022-10-13T09:00:43.000Z,9.278245
2022-10-13T09:01:42.997Z,9.278311
2022-10-13T09:02:42.982Z,9.278199
2022-10-13T09:03:42.942Z,9.278408
2022-10-13T09:04:42.897Z,9.278286
2022-10-13T09:05:42.914Z,9.278455
2022-10-13T09:06:42.901Z,9.278391
2022-10-13T09:07:42.948Z,9.278409
2022-10-13T09:08:43.027Z,9.278222
2022-10-13T09:09:42.912Z,9.278280
2022-10-13T09:10:42.832Z,9.278181
2022-10-13T09:11:43.083Z,9.278193
2022-10-13T09:12:42.791Z,9.278118
2022-10-13T09:13:42.767Z,9.278076
2022-10-13T09:14:42.796Z,9.278104
2022-10-13T09:15:42.761Z,9.278133
2022-10-13T09:16:42.732Z,9.278232
2022-10-13T09:17:42.934Z,9.277935
2022-10-13T09:18:42.785Z,9.278195
2022-10-13T09:19:42.973Z,9.278256
2022-10-13T09:20:42.695Z,9.278063
2022-10-13T09:21:42.759Z,9.278125
2022-10-13T09:22:42.647Z,9.278427
2022-10-13T09:23:42.653Z,9.278161
2022-10-13T09:24:42.692Z,9.278301
2022-10-13T09:25:42.784Z,9.278329
2022-10-13T09:26:43.592Z,9.278401
2022-10-13T09:27:42.605Z,9.278362
2022-10-13T09:28:42.629Z,9.278311
2022-10-13T09:29:42.686Z,9.278375
2022-10-13T09:30:42.554Z,9.278251
2022-10-13T09:31:42.506Z,9.278313
2022-10-13T09:32:42.479Z,9.278291
2022-10-13T09:33:42.459Z,9.278285
2022-10-13T09:34:42.488Z,9.278202
2022-10-13T09:35:42.444Z,9.278119
2022-10-13T09:36:42.601Z,9.278078
2022-10-13T09:37:42.433Z,9.278142
2022-10-13T09:38:42.678Z,9.278111
2022-10-13T09:39:42.427Z,9.278133
2022-10-13T09:41:42.636Z,9.278366
2022-10-13T09:42:42.290Z,9.278322
2022-10-13T09:43:42.431Z,9.278316
2022-10-13T09:44:42.373Z,9.278305
2022-10-13T09:45:42.290Z,9.278337
2022-10-13T09:46:42.499Z,9.278377
2022-10-13T09:47:42.269Z,9.278330
2022-10-13T09:48:42.298Z,9.278303
2022-10-13T09:49:42.328Z,9.278360
2022-10-13T09:50:43.264Z,9.278388
2022-10-13T09:51:42.200Z,9.278346
2022-10-13T09:52:42.187Z,9.278297
2022-10-13T09:53:42.149Z,9.278365
2022-10-13T09:54:42.226Z,9.278317
2022-10-13T09:55:42.100Z,9.278391
2022-10-13T09:56:42.080Z,9.278271
2022-10-13T09:57:42.105Z,9.278386
2022-10-13T09:58:42.586Z,9.278365
2022-10-13T09:59:42.253Z,9.278364
2022-10-13T10:00:42.034Z,9.278335
2022-10-13T10:01:42.034Z,9.278340
2022-10-13T10:02:41.989Z,9.278355
2022-10-13T10:03:42.066Z,9.278314
2022-10-13T10:04:41.942Z,9.278296
2022-10-13T10:05:41.972Z,9.278315
2022-10-13T10:06:41.950Z,9.278360
2022-10-13T10:07:41.903Z,9.278382
2022-10-13T10:09:02.285Z,9.278378
2022-10-13T10:09:44.044Z,9.278357
2022-10-13T10:10:41.894Z,9.278369
2022-10-13T10:11:41.864Z,9.278410
2022-10-13T10:12:41.820Z,9.278354
2022-10-13T10:13:41.848Z,9.278348
2022-10-13T10:14:41.832Z,9.278389
2022-10-13T10:15:41.816Z,9.278425
2022-10-13T10:16:41.776Z,9.278374
2022-10-13T10:17:42.841Z,9.278341
2022-10-13T10:18:41.922Z,9.278386
2022-10-13T10:19:41.709Z,9.278412
2022-10-13T10:20:41.829Z,9.278389
2022-10-13T10:21:41.689Z,9.278374
2022-10-13T10:22:41.896Z,9.278382
2022-10-13T10:23:41.907Z,9.278414
2022-10-13T10:24:41.644Z,9.278566
2022-10-13T10:25:41.646Z,9.278517
2022-10-13T10:26:41.878Z,9.278467
2022-10-13T10:27:43.765Z,9.278511
2022-10-13T10:28:41.619Z,9.278428
2022-10-13T10:29:41.677Z,9.278340
2022-10-13T10:30:41.567Z,9.278355
2022-10-13T10:31:41.707Z,9.278370
2022-10-13T10:32:41.530Z,9.278344
2022-10-13T10:33:41.551Z,9.278285
2022-10-13T10:34:41.631Z,9.278284
2022-10-13T10:35:42.429Z,9.278252
2022-10-13T10:36:41.468Z,9.278350
2022-10-13T10:37:41.481Z,9.278220
2022-10-13T10:38:41.404Z,9.278317
2022-10-13T10:39:41.524Z,9.278312
2022-10-13T10:40:41.388Z,9.278272
2022-10-13T10:41:41.377Z,9.278331
2022-10-13T10:42:41.394Z,9.278316
2022-10-13T10:43:41.379Z,9.278305
2022-10-13T10:44:41.445Z,9.278267
2022-10-13T10:45:41.523Z,9.278345
2022-10-13T10:46:41.311Z,9.278323
2022-10-13T10:47:41.324Z,9.278367
2022-10-13T10:48:41.273Z,9.278354
2022-10-13T10:49:41.407Z,9.278322
2022-10-13T10:50:41.215Z,9.278353
2022-10-13T10:51:41.198Z,9.278310
2022-10-13T10:52:41.162Z,9.278316
2022-10-13T10:53:41.236Z,9.278341
2022-10-13T10:54:45.066Z,9.278466
2022-10-13T10:55:42.120Z,9.278404
2022-10-13T10:56:41.154Z,9.278357
2022-10-13T10:57:41.120Z,9.278316
2022-10-13T10:58:41.070Z,9.278328
2022-10-13T10:59:41.134Z,9.278348
2022-10-13T11:00:40.984Z,9.278299
2022-10-13T11:01:41.128Z,9.278430
2022-10-13T11:02:41.074Z,9.278339
2022-10-13T11:03:41.023Z,9.278355
2022-10-13T11:04:40.999Z,9.278253
2022-10-13T11:05:40.945Z,9.278352
2022-10-13T11:06:41.114Z,9.278386
2022-10-13T11:07:40.904Z,9.278381
2022-10-13T11:08:41.092Z,9.278407
2022-10-13T11:09:41.080Z,9.278392
2022-10-13T11:10:40.892Z,9.278414
2022-10-13T11:11:40.939Z,9.278464
2022-10-13T11:12:41.665Z,9.278346
2022-10-13T11:13:40.855Z,9.278317
2022-10-13T11:14:41.433Z,9.278367
2022-10-13T11:15:40.930Z,9.278304
2022-10-13T11:16:40.875Z,9.278296
2022-10-13T11:17:53.954Z,9.278207
2022-10-13T11:18:41.708Z,9.278241
2022-10-13T11:19:40.840Z,9.278138
2022-10-13T11:20:40.670Z,9.278137
2022-10-13T11:21:40.671Z,9.278160
2022-10-13T11:22:40.684Z,9.278203
2022-10-13T11:23:40.617Z,9.278281
2022-10-13T11:24:40.689Z,9.278331
2022-10-13T11:25:40.621Z,9.278351
2022-10-13T11:26:40.552Z,9.278341
2022-10-13T11:27:40.579Z,9.278375
2022-10-13T11:28:40.693Z,9.278363
2022-10-13T11:29:40.614Z,9.278346
2022-10-13T11:30:40.542Z,9.278316
2022-10-13T11:31:40.548Z,9.278407
2022-10-13T11:32:40.586Z,9.278409
2022-10-13T11:33:40.451Z,9.278288
2022-10-13T11:34:40.765Z,9.278355
2022-10-13T11:35:41.582Z,9.278347
2022-10-13T11:36:40.653Z,9.278329
2022-10-13T11:37:40.410Z,9.278422
2022-10-13T11:38:40.354Z,9.278427
2022-10-13T11:39:40.377Z,9.278298
2022-10-13T11:40:40.357Z,9.278386
2022-10-13T11:41:40.336Z,9.278315
2022-10-13T11:42:40.787Z,9.278420
2022-10-13T11:43:40.354Z,9.278368
2022-10-13T11:44:40.273Z,9.278407
2022-10-13T11:45:40.271Z,9.278446
2022-10-13T11:46:40.243Z,9.278413